sensor_id;sensor_type;location;lat;lon;timestamp;P1;durP1;ratioP1;P2;durP2;ratioP2
9948;SDS011;5013;51.840;8.276;2023-03-12T00:01:14;16.23;;;7.77;;
9948;SDS011;5013;51.840;8.276;2023-03-12T00:03:44;19.47;;;7.83;;
9948;SDS011;5013;51.840;8.276;2023-03-12T00:06:10;10.73;;;7.17;;
9948;SDS011;5013;51.840;8.276;2023-03-12T00:08:36;13.97;;;7.60;;
9948;SDS011;5013;51.840;8.276;2023-03-12T00:11:06;11.37;;;7.50;;
9948;SDS011;5013;51.840;8.276;2023-03-12T00:13:36;9.73;;;7.40;;
9948;SDS011;5013;51.840;8.276;2023-03-12T00:16:12;11.40;;;6.83;;
9948;SDS011;5013;51.840;8.276;2023-03-12T00:18:39;8.73;;;7.30;;
9948;SDS011;5013;51.840;8.276;2023-03-12T00:21:05;9.40;;;7.13;;
9948;SDS011;5013;51.840;8.276;2023-03-12T00:23:31;13.10;;;7.63;;
9948;SDS011;5013;51.840;8.276;2023-03-12T00:26:04;10.40;;;7.23;;
9948;SDS011;5013;51.840;8.276;2023-03-12T00:28:32;14.13;;;7.47;;
9948;SDS011;5013;51.840;8.276;2023-03-12T00:30:59;8.57;;;6.97;;
9948;SDS011;5013;51.840;8.276;2023-03-12T00:33:25;8.57;;;6.90;;
9948;SDS011;5013;51.840;8.276;2023-03-12T00:35:53;9.03;;;7.17;;
9948;SDS011;5013;51.840;8.276;2023-03-12T00:38:19;9.97;;;6.97;;
9948;SDS011;5013;51.840;8.276;2023-03-12T00:40:45;10.03;;;7.10;;
9948;SDS011;5013;51.840;8.276;2023-03-12T00:43:10;13.90;;;6.90;;
9948;SDS011;5013;51.840;8.276;2023-03-12T00:45:36;8.27;;;6.63;;
9948;SDS011;5013;51.840;8.276;2023-03-12T00:48:02;9.10;;;6.40;;
9948;SDS011;5013;51.840;8.276;2023-03-12T00:50:27;9.50;;;7.40;;
9948;SDS011;5013;51.840;8.276;2023-03-12T00:52:53;9.80;;;7.00;;
9948;SDS011;5013;51.840;8.276;2023-03-12T00:55:19;7.60;;;6.70;;
9948;SDS011;5013;51.840;8.276;2023-03-12T00:57:45;13.17;;;7.00;;
9948;SDS011;5013;51.840;8.276;2023-03-12T01:00:11;11.43;;;6.63;;
9948;SDS011;5013;51.840;8.276;2023-03-12T01:02:37;10.20;;;7.70;;
9948;SDS011;5013;51.840;8.276;2023-03-12T01:05:07;8.93;;;7.40;;
9948;SDS011;5013;51.840;8.276;2023-03-12T01:07:35;15.37;;;8.03;;
9948;SDS011;5013;51.840;8.276;2023-03-12T01:10:01;12.67;;;7.60;;
9948;SDS011;5013;51.840;8.276;2023-03-12T01:12:27;8.57;;;7.13;;
9948;SDS011;5013;51.840;8.276;2023-03-12T01:14:52;11.07;;;7.63;;
9948;SDS011;5013;51.840;8.276;2023-03-12T01:17:18;10.77;;;7.23;;
9948;SDS011;5013;51.840;8.276;2023-03-12T01:19:44;11.47;;;8.03;;
9948;SDS011;5013;51.840;8.276;2023-03-12T01:22:09;10.10;;;7.50;;
9948;SDS011;5013;51.840;8.276;2023-03-12T01:24:35;9.80;;;8.80;;
9948;SDS011;5013;51.840;8.276;2023-03-12T01:27:00;9.87;;;8.87;;
9948;SDS011;5013;51.840;8.276;2023-03-12T01:29:26;13.60;;;8.43;;
9948;SDS011;5013;51.840;8.276;2023-03-12T01:31:52;11.13;;;8.00;;
9948;SDS011;5013;51.840;8.276;2023-03-12T01:34:17;12.30;;;9.07;;
9948;SDS011;5013;51.840;8.276;2023-03-12T01:36:43;9.40;;;8.37;;
9948;SDS011;5013;51.840;8.276;2023-03-12T01:39:10;10.53;;;8.53;;
9948;SDS011;5013;51.840;8.276;2023-03-12T01:41:35;11.00;;;8.70;;
9948;SDS011;5013;51.840;8.276;2023-03-12T01:44:01;13.53;;;8.67;;
9948;SDS011;5013;51.840;8.276;2023-03-12T01:46:29;9.47;;;8.43;;
9948;SDS011;5013;51.840;8.276;2023-03-12T01:51:27;10.83;;;8.33;;
9948;SDS011;5013;51.840;8.276;2023-03-12T01:53:58;9.77;;;7.43;;
9948;SDS011;5013;51.840;8.276;2023-03-12T01:56:27;12.57;;;8.40;;
9948;SDS011;5013;51.840;8.276;2023-03-12T01:58:57;10.20;;;8.13;;
9948;SDS011;5013;51.840;8.276;2023-03-12T02:01:26;10.63;;;7.93;;
9948;SDS011;5013;51.840;8.276;2023-03-12T02:03:53;11.83;;;7.53;;
9948;SDS011;5013;51.840;8.276;2023-03-12T02:06:30;10.43;;;7.87;;
9948;SDS011;5013;51.840;8.276;2023-03-12T02:09:07;8.80;;;7.07;;
9948;SDS011;5013;51.840;8.276;2023-03-12T02:11:34;12.53;;;7.70;;
9948;SDS011;5013;51.840;8.276;2023-03-12T02:13:59;8.93;;;7.57;;
9948;SDS011;5013;51.840;8.276;2023-03-12T02:16:25;11.00;;;7.23;;
9948;SDS011;5013;51.840;8.276;2023-03-12T02:18:51;8.33;;;7.30;;
9948;SDS011;5013;51.840;8.276;2023-03-12T02:21:28;7.57;;;6.83;;
9948;SDS011;5013;51.840;8.276;2023-03-12T02:26:41;8.57;;;7.03;;
9948;SDS011;5013;51.840;8.276;2023-03-12T02:29:07;10.27;;;7.87;;
9948;SDS011;5013;51.840;8.276;2023-03-12T02:31:37;8.27;;;7.40;;
9948;SDS011;5013;51.840;8.276;2023-03-12T02:34:08;10.50;;;7.53;;
9948;SDS011;5013;51.840;8.276;2023-03-12T02:36:34;12.30;;;7.07;;
9948;SDS011;5013;51.840;8.276;2023-03-12T02:39:00;13.67;;;7.47;;
9948;SDS011;5013;51.840;8.276;2023-03-12T02:41:35;7.83;;;7.03;;
9948;SDS011;5013;51.840;8.276;2023-03-12T02:44:12;8.67;;;7.43;;
9948;SDS011;5013;51.840;8.276;2023-03-12T02:46:42;8.47;;;7.50;;
9948;SDS011;5013;51.840;8.276;2023-03-12T02:49:10;7.93;;;7.23;;
9948;SDS011;5013;51.840;8.276;2023-03-12T02:51:37;8.10;;;6.87;;
9948;SDS011;5013;51.840;8.276;2023-03-12T02:54:03;8.77;;;6.97;;
9948;SDS011;5013;51.840;8.276;2023-03-12T02:56:29;13.40;;;7.70;;
9948;SDS011;5013;51.840;8.276;2023-03-12T02:58:55;8.93;;;7.90;;
9948;SDS011;5013;51.840;8.276;2023-03-12T03:01:21;14.63;;;8.67;;
9948;SDS011;5013;51.840;8.276;2023-03-12T03:03:46;8.77;;;7.53;;
9948;SDS011;5013;51.840;8.276;2023-03-12T03:06:12;15.40;;;8.07;;
9948;SDS011;5013;51.840;8.276;2023-03-12T03:08:38;11.57;;;8.40;;
9948;SDS011;5013;51.840;8.276;2023-03-12T03:11:04;14.67;;;7.90;;
9948;SDS011;5013;51.840;8.276;2023-03-12T03:13:31;9.13;;;7.83;;
9948;SDS011;5013;51.840;8.276;2023-03-12T03:15:57;10.47;;;7.97;;
9948;SDS011;5013;51.840;8.276;2023-03-12T03:18:24;8.60;;;7.67;;
9948;SDS011;5013;51.840;8.276;2023-03-12T03:21:00;10.57;;;7.87;;
9948;SDS011;5013;51.840;8.276;2023-03-12T03:23:28;11.13;;;7.27;;
9948;SDS011;5013;51.840;8.276;2023-03-12T03:25:54;14.67;;;7.97;;
9948;SDS011;5013;51.840;8.276;2023-03-12T03:28:21;13.10;;;7.80;;
9948;SDS011;5013;51.840;8.276;2023-03-12T03:30:48;10.20;;;8.03;;
9948;SDS011;5013;51.840;8.276;2023-03-12T03:33:22;10.40;;;8.10;;
9948;SDS011;5013;51.840;8.276;2023-03-12T03:35:48;8.03;;;7.33;;
9948;SDS011;5013;51.840;8.276;2023-03-12T03:38:14;9.93;;;7.40;;
9948;SDS011;5013;51.840;8.276;2023-03-12T03:40:39;15.83;;;7.90;;
9948;SDS011;5013;51.840;8.276;2023-03-12T03:43:05;11.17;;;7.73;;
9948;SDS011;5013;51.840;8.276;2023-03-12T03:45:30;13.10;;;7.33;;
9948;SDS011;5013;51.840;8.276;2023-03-12T03:47:56;9.57;;;7.23;;
9948;SDS011;5013;51.840;8.276;2023-03-12T03:50:21;8.50;;;7.00;;
9948;SDS011;5013;51.840;8.276;2023-03-12T03:52:47;10.30;;;7.57;;
9948;SDS011;5013;51.840;8.276;2023-03-12T03:55:13;11.63;;;7.53;;
9948;SDS011;5013;51.840;8.276;2023-03-12T03:57:38;8.90;;;7.30;;
9948;SDS011;5013;51.840;8.276;2023-03-12T04:00:04;9.13;;;7.40;;
9948;SDS011;5013;51.840;8.276;2023-03-12T04:02:33;7.63;;;6.43;;
9948;SDS011;5013;51.840;8.276;2023-03-12T04:05:00;9.73;;;7.20;;
9948;SDS011;5013;51.840;8.276;2023-03-12T04:07:26;7.83;;;7.03;;
9948;SDS011;5013;51.840;8.276;2023-03-12T04:09:52;10.97;;;7.83;;
9948;SDS011;5013;51.840;8.276;2023-03-12T04:12:18;10.50;;;7.53;;
9948;SDS011;5013;51.840;8.276;2023-03-12T04:14:44;8.00;;;6.90;;
9948;SDS011;5013;51.840;8.276;2023-03-12T04:17:09;9.03;;;6.90;;
9948;SDS011;5013;51.840;8.276;2023-03-12T04:19:35;8.40;;;7.23;;
9948;SDS011;5013;51.840;8.276;2023-03-12T04:22:01;8.07;;;6.87;;
9948;SDS011;5013;51.840;8.276;2023-03-12T04:24:26;12.40;;;7.13;;
9948;SDS011;5013;51.840;8.276;2023-03-12T04:26:52;8.10;;;7.30;;
9948;SDS011;5013;51.840;8.276;2023-03-12T04:29:17;10.53;;;7.17;;
9948;SDS011;5013;51.840;8.276;2023-03-12T04:31:43;15.43;;;7.23;;
9948;SDS011;5013;51.840;8.276;2023-03-12T04:34:09;11.33;;;7.33;;
9948;SDS011;5013;51.840;8.276;2023-03-12T04:36:35;10.43;;;7.07;;
9948;SDS011;5013;51.840;8.276;2023-03-12T04:39:01;8.93;;;7.20;;
9948;SDS011;5013;51.840;8.276;2023-03-12T04:41:31;10.20;;;6.77;;
9948;SDS011;5013;51.840;8.276;2023-03-12T04:44:00;7.60;;;6.90;;
9948;SDS011;5013;51.840;8.276;2023-03-12T04:46:26;12.03;;;7.00;;
9948;SDS011;5013;51.840;8.276;2023-03-12T04:48:51;10.90;;;7.20;;
9948;SDS011;5013;51.840;8.276;2023-03-12T04:51:17;10.27;;;6.90;;
9948;SDS011;5013;51.840;8.276;2023-03-12T04:53:42;11.30;;;6.67;;
9948;SDS011;5013;51.840;8.276;2023-03-12T04:56:08;16.70;;;7.20;;
9948;SDS011;5013;51.840;8.276;2023-03-12T04:58:34;8.80;;;6.60;;
9948;SDS011;5013;51.840;8.276;2023-03-12T05:01:00;8.10;;;6.37;;
9948;SDS011;5013;51.840;8.276;2023-03-12T05:03:26;8.60;;;6.87;;
9948;SDS011;5013;51.840;8.276;2023-03-12T05:05:51;7.93;;;6.23;;
9948;SDS011;5013;51.840;8.276;2023-03-12T05:08:17;10.73;;;6.90;;
9948;SDS011;5013;51.840;8.276;2023-03-12T05:10:43;9.70;;;6.87;;
9948;SDS011;5013;51.840;8.276;2023-03-12T05:13:16;11.30;;;6.83;;
9948;SDS011;5013;51.840;8.276;2023-03-12T05:15:46;7.93;;;6.80;;
9948;SDS011;5013;51.840;8.276;2023-03-12T05:18:14;8.77;;;6.30;;
9948;SDS011;5013;51.840;8.276;2023-03-12T05:20:40;7.70;;;6.27;;
9948;SDS011;5013;51.840;8.276;2023-03-12T05:23:06;8.87;;;6.03;;
9948;SDS011;5013;51.840;8.276;2023-03-12T05:25:31;9.50;;;6.00;;
9948;SDS011;5013;51.840;8.276;2023-03-12T05:27:57;6.90;;;6.13;;
9948;SDS011;5013;51.840;8.276;2023-03-12T05:30:23;10.33;;;6.47;;
9948;SDS011;5013;51.840;8.276;2023-03-12T05:32:48;10.23;;;5.83;;
9948;SDS011;5013;51.840;8.276;2023-03-12T05:35:14;8.57;;;6.37;;
9948;SDS011;5013;51.840;8.276;2023-03-12T05:37:39;7.00;;;6.30;;
9948;SDS011;5013;51.840;8.276;2023-03-12T05:40:08;6.67;;;6.17;;
9948;SDS011;5013;51.840;8.276;2023-03-12T05:42:35;11.67;;;6.03;;
9948;SDS011;5013;51.840;8.276;2023-03-12T05:45:01;8.37;;;6.07;;
9948;SDS011;5013;51.840;8.276;2023-03-12T05:47:27;15.10;;;6.27;;
9948;SDS011;5013;51.840;8.276;2023-03-12T05:49:53;11.37;;;5.77;;
9948;SDS011;5013;51.840;8.276;2023-03-12T05:52:18;8.77;;;5.57;;
9948;SDS011;5013;51.840;8.276;2023-03-12T05:54:44;10.23;;;5.23;;
9948;SDS011;5013;51.840;8.276;2023-03-12T05:57:09;7.53;;;5.63;;
9948;SDS011;5013;51.840;8.276;2023-03-12T05:59:35;8.47;;;5.10;;
9948;SDS011;5013;51.840;8.276;2023-03-12T06:02:01;7.23;;;5.10;;
9948;SDS011;5013;51.840;8.276;2023-03-12T06:04:26;6.40;;;4.57;;
9948;SDS011;5013;51.840;8.276;2023-03-12T06:06:52;8.20;;;4.63;;
9948;SDS011;5013;51.840;8.276;2023-03-12T06:09:17;8.60;;;4.93;;
9948;SDS011;5013;51.840;8.276;2023-03-12T06:11:43;5.37;;;4.83;;
9948;SDS011;5013;51.840;8.276;2023-03-12T06:14:09;6.67;;;4.63;;
9948;SDS011;5013;51.840;8.276;2023-03-12T06:16:34;7.67;;;4.37;;
9948;SDS011;5013;51.840;8.276;2023-03-12T06:19:00;6.80;;;4.30;;
9948;SDS011;5013;51.840;8.276;2023-03-12T06:21:27;6.13;;;4.53;;
9948;SDS011;5013;51.840;8.276;2023-03-12T06:23:56;7.90;;;4.20;;
9948;SDS011;5013;51.840;8.276;2023-03-12T06:26:22;6.73;;;4.27;;
9948;SDS011;5013;51.840;8.276;2023-03-12T06:28:48;6.87;;;4.63;;
9948;SDS011;5013;51.840;8.276;2023-03-12T06:31:15;6.10;;;4.33;;
9948;SDS011;5013;51.840;8.276;2023-03-12T06:33:41;12.83;;;4.53;;
9948;SDS011;5013;51.840;8.276;2023-03-12T06:36:07;5.17;;;4.13;;
9948;SDS011;5013;51.840;8.276;2023-03-12T06:38:33;7.53;;;3.97;;
9948;SDS011;5013;51.840;8.276;2023-03-12T06:41:01;6.43;;;4.03;;
9948;SDS011;5013;51.840;8.276;2023-03-12T06:43:29;6.40;;;4.27;;
9948;SDS011;5013;51.840;8.276;2023-03-12T06:45:56;10.97;;;4.67;;
9948;SDS011;5013;51.840;8.276;2023-03-12T06:48:23;6.57;;;3.93;;
9948;SDS011;5013;51.840;8.276;2023-03-12T06:50:50;6.40;;;3.50;;
9948;SDS011;5013;51.840;8.276;2023-03-12T06:53:16;3.97;;;3.57;;
9948;SDS011;5013;51.840;8.276;2023-03-12T06:55:43;5.07;;;3.70;;
9948;SDS011;5013;51.840;8.276;2023-03-12T06:58:08;5.50;;;3.50;;
9948;SDS011;5013;51.840;8.276;2023-03-12T07:00:34;7.40;;;3.70;;
9948;SDS011;5013;51.840;8.276;2023-03-12T07:03:00;6.10;;;3.27;;
9948;SDS011;5013;51.840;8.276;2023-03-12T07:05:26;6.93;;;3.13;;
9948;SDS011;5013;51.840;8.276;2023-03-12T07:07:52;9.37;;;3.70;;
9948;SDS011;5013;51.840;8.276;2023-03-12T07:10:18;7.80;;;3.67;;
9948;SDS011;5013;51.840;8.276;2023-03-12T07:12:44;7.13;;;3.50;;
9948;SDS011;5013;51.840;8.276;2023-03-12T07:15:10;5.67;;;3.47;;
9948;SDS011;5013;51.840;8.276;2023-03-12T07:17:36;7.73;;;3.53;;
9948;SDS011;5013;51.840;8.276;2023-03-12T07:20:02;5.53;;;3.17;;
9948;SDS011;5013;51.840;8.276;2023-03-12T07:22:28;9.30;;;3.63;;
9948;SDS011;5013;51.840;8.276;2023-03-12T07:24:54;6.83;;;3.30;;
9948;SDS011;5013;51.840;8.276;2023-03-12T07:27:19;7.20;;;3.00;;
9948;SDS011;5013;51.840;8.276;2023-03-12T07:29:45;6.60;;;3.43;;
9948;SDS011;5013;51.840;8.276;2023-03-12T07:32:10;15.87;;;3.97;;
9948;SDS011;5013;51.840;8.276;2023-03-12T07:34:36;9.03;;;3.83;;
9948;SDS011;5013;51.840;8.276;2023-03-12T07:37:02;8.00;;;3.20;;
9948;SDS011;5013;51.840;8.276;2023-03-12T07:39:28;8.40;;;3.57;;
9948;SDS011;5013;51.840;8.276;2023-03-12T07:41:53;5.93;;;3.43;;
9948;SDS011;5013;51.840;8.276;2023-03-12T07:44:19;8.70;;;3.07;;
9948;SDS011;5013;51.840;8.276;2023-03-12T07:46:44;10.67;;;3.57;;
9948;SDS011;5013;51.840;8.276;2023-03-12T07:49:10;8.97;;;3.27;;
9948;SDS011;5013;51.840;8.276;2023-03-12T07:51:36;7.50;;;3.63;;
9948;SDS011;5013;51.840;8.276;2023-03-12T07:54:01;8.77;;;3.00;;
9948;SDS011;5013;51.840;8.276;2023-03-12T07:56:27;9.67;;;3.03;;
9948;SDS011;5013;51.840;8.276;2023-03-12T07:58:53;10.87;;;3.17;;
9948;SDS011;5013;51.840;8.276;2023-03-12T08:01:19;12.20;;;3.60;;
9948;SDS011;5013;51.840;8.276;2023-03-12T08:03:45;8.80;;;3.50;;
9948;SDS011;5013;51.840;8.276;2023-03-12T08:06:10;7.47;;;3.30;;
9948;SDS011;5013;51.840;8.276;2023-03-12T08:08:36;8.80;;;3.07;;
9948;SDS011;5013;51.840;8.276;2023-03-12T08:11:05;6.73;;;3.27;;
9948;SDS011;5013;51.840;8.276;2023-03-12T08:13:31;7.70;;;3.10;;
9948;SDS011;5013;51.840;8.276;2023-03-12T08:15:56;4.93;;;2.73;;
9948;SDS011;5013;51.840;8.276;2023-03-12T08:18:22;7.13;;;3.60;;
9948;SDS011;5013;51.840;8.276;2023-03-12T08:20:52;6.17;;;2.47;;
9948;SDS011;5013;51.840;8.276;2023-03-12T08:23:19;7.47;;;2.80;;
9948;SDS011;5013;51.840;8.276;2023-03-12T08:25:46;8.53;;;2.43;;
9948;SDS011;5013;51.840;8.276;2023-03-12T08:28:12;6.20;;;2.77;;
9948;SDS011;5013;51.840;8.276;2023-03-12T08:30:39;3.67;;;2.30;;
9948;SDS011;5013;51.840;8.276;2023-03-12T08:33:08;8.97;;;2.97;;
9948;SDS011;5013;51.840;8.276;2023-03-12T08:35:34;7.33;;;2.30;;
9948;SDS011;5013;51.840;8.276;2023-03-12T08:38:01;5.93;;;2.40;;
9948;SDS011;5013;51.840;8.276;2023-03-12T08:40:26;6.83;;;2.40;;
9948;SDS011;5013;51.840;8.276;2023-03-12T08:42:52;10.07;;;2.60;;
9948;SDS011;5013;51.840;8.276;2023-03-12T08:45:17;8.00;;;2.90;;
9948;SDS011;5013;51.840;8.276;2023-03-12T08:47:44;9.80;;;2.90;;
9948;SDS011;5013;51.840;8.276;2023-03-12T08:50:10;6.47;;;2.37;;
9948;SDS011;5013;51.840;8.276;2023-03-12T08:52:37;9.57;;;2.90;;
9948;SDS011;5013;51.840;8.276;2023-03-12T08:55:02;6.33;;;2.33;;
9948;SDS011;5013;51.840;8.276;2023-03-12T08:57:29;4.70;;;2.70;;
9948;SDS011;5013;51.840;8.276;2023-03-12T08:59:55;5.30;;;2.73;;
9948;SDS011;5013;51.840;8.276;2023-03-12T09:02:21;4.83;;;2.77;;
9948;SDS011;5013;51.840;8.276;2023-03-12T09:04:47;5.90;;;2.60;;
9948;SDS011;5013;51.840;8.276;2023-03-12T09:07:13;7.77;;;3.43;;
9948;SDS011;5013;51.840;8.276;2023-03-12T09:09:42;20.07;;;8.30;;
9948;SDS011;5013;51.840;8.276;2023-03-12T09:12:08;8.90;;;4.63;;
9948;SDS011;5013;51.840;8.276;2023-03-12T09:14:34;8.60;;;4.10;;
9948;SDS011;5013;51.840;8.276;2023-03-12T09:16:59;5.43;;;3.30;;
9948;SDS011;5013;51.840;8.276;2023-03-12T09:19:26;6.70;;;3.20;;
9948;SDS011;5013;51.840;8.276;2023-03-12T09:21:52;8.13;;;3.53;;
9948;SDS011;5013;51.840;8.276;2023-03-12T09:24:17;7.77;;;3.60;;
9948;SDS011;5013;51.840;8.276;2023-03-12T09:26:43;7.10;;;3.90;;
9948;SDS011;5013;51.840;8.276;2023-03-12T09:29:09;4.60;;;3.50;;
9948;SDS011;5013;51.840;8.276;2023-03-12T09:31:34;6.20;;;3.23;;
9948;SDS011;5013;51.840;8.276;2023-03-12T09:34:03;11.87;;;4.37;;
9948;SDS011;5013;51.840;8.276;2023-03-12T09:36:29;11.30;;;4.70;;
9948;SDS011;5013;51.840;8.276;2023-03-12T09:38:54;11.43;;;4.03;;
9948;SDS011;5013;51.840;8.276;2023-03-12T09:41:22;13.23;;;4.07;;
9948;SDS011;5013;51.840;8.276;2023-03-12T09:46:22;10.83;;;5.00;;
9948;SDS011;5013;51.840;8.276;2023-03-12T09:48:55;16.97;;;4.53;;
9948;SDS011;5013;51.840;8.276;2023-03-12T09:51:44;11.33;;;4.70;;
9948;SDS011;5013;51.840;8.276;2023-03-12T09:57:10;17.87;;;5.17;;
9948;SDS011;5013;51.840;8.276;2023-03-12T09:59:38;12.93;;;4.93;;
9948;SDS011;5013;51.840;8.276;2023-03-12T10:02:05;30.57;;;6.53;;
9948;SDS011;5013;51.840;8.276;2023-03-12T10:04:59;16.90;;;5.70;;
9948;SDS011;5013;51.840;8.276;2023-03-12T10:07:34;13.37;;;4.97;;
9948;SDS011;5013;51.840;8.276;2023-03-12T10:10:18;12.37;;;5.20;;
9948;SDS011;5013;51.840;8.276;2023-03-12T10:16:37;21.40;;;6.30;;
9948;SDS011;5013;51.840;8.276;2023-03-12T10:18:53;28.10;;;8.30;;
9948;SDS011;5013;51.840;8.276;2023-03-12T10:24:18;22.57;;;7.87;;
9948;SDS011;5013;51.840;8.276;2023-03-12T10:26:48;25.53;;;9.60;;
9948;SDS011;5013;51.840;8.276;2023-03-12T10:29:23;18.67;;;9.00;;
9948;SDS011;5013;51.840;8.276;2023-03-12T10:37:11;17.30;;;7.47;;
9948;SDS011;5013;51.840;8.276;2023-03-12T10:39:38;27.40;;;9.70;;
9948;SDS011;5013;51.840;8.276;2023-03-12T10:42:09;22.73;;;7.93;;
9948;SDS011;5013;51.840;8.276;2023-03-12T10:44:41;23.83;;;8.37;;
9948;SDS011;5013;51.840;8.276;2023-03-12T10:47:15;20.43;;;7.30;;
9948;SDS011;5013;51.840;8.276;2023-03-12T10:49:49;19.63;;;7.83;;
9948;SDS011;5013;51.840;8.276;2023-03-12T10:52:17;19.97;;;7.70;;
9948;SDS011;5013;51.840;8.276;2023-03-12T10:54:48;14.83;;;7.53;;
9948;SDS011;5013;51.840;8.276;2023-03-12T10:57:15;23.30;;;8.00;;
9948;SDS011;5013;51.840;8.276;2023-03-12T10:59:43;21.83;;;8.67;;
9948;SDS011;5013;51.840;8.276;2023-03-12T11:02:31;18.97;;;7.43;;
9948;SDS011;5013;51.840;8.276;2023-03-12T11:04:59;19.10;;;7.40;;
9948;SDS011;5013;51.840;8.276;2023-03-12T11:07:30;26.30;;;8.10;;
9948;SDS011;5013;51.840;8.276;2023-03-12T11:12:31;17.43;;;7.53;;
9948;SDS011;5013;51.840;8.276;2023-03-12T11:15:15;20.80;;;7.73;;
9948;SDS011;5013;51.840;8.276;2023-03-12T11:17:42;22.40;;;8.77;;
9948;SDS011;5013;51.840;8.276;2023-03-12T11:23:16;18.70;;;8.50;;
9948;SDS011;5013;51.840;8.276;2023-03-12T11:26:02;12.70;;;6.50;;
9948;SDS011;5013;51.840;8.276;2023-03-12T11:28:35;26.87;;;8.77;;
9948;SDS011;5013;51.840;8.276;2023-03-12T11:31:04;19.53;;;8.33;;
9948;SDS011;5013;51.840;8.276;2023-03-12T11:33:39;12.13;;;8.13;;
9948;SDS011;5013;51.840;8.276;2023-03-12T11:36:07;30.67;;;11.77;;
9948;SDS011;5013;51.840;8.276;2023-03-12T11:38:42;22.17;;;10.53;;
9948;SDS011;5013;51.840;8.276;2023-03-12T11:41:28;29.93;;;10.90;;
9948;SDS011;5013;51.840;8.276;2023-03-12T11:47:04;12.73;;;9.40;;
9948;SDS011;5013;51.840;8.276;2023-03-12T11:55:07;19.77;;;9.10;;
9948;SDS011;5013;51.840;8.276;2023-03-12T12:00:36;15.37;;;9.07;;
9948;SDS011;5013;51.840;8.276;2023-03-12T12:14:28;26.37;;;7.43;;
9948;SDS011;5013;51.840;8.276;2023-03-12T12:20:13;13.87;;;7.77;;
9948;SDS011;5013;51.840;8.276;2023-03-12T12:33:53;17.70;;;8.93;;
9948;SDS011;5013;51.840;8.276;2023-03-12T12:36:34;8.73;;;7.83;;
9948;SDS011;5013;51.840;8.276;2023-03-12T12:39:02;10.80;;;9.53;;
9948;SDS011;5013;51.840;8.276;2023-03-12T12:41:37;10.93;;;9.77;;
9948;SDS011;5013;51.840;8.276;2023-03-12T12:44:23;9.60;;;8.60;;
9948;SDS011;5013;51.840;8.276;2023-03-12T12:46:58;11.33;;;9.10;;
9948;SDS011;5013;51.840;8.276;2023-03-12T12:49:30;10.70;;;8.83;;
9948;SDS011;5013;51.840;8.276;2023-03-12T12:52:14;13.33;;;11.93;;
9948;SDS011;5013;51.840;8.276;2023-03-12T12:54:54;18.47;;;15.47;;
9948;SDS011;5013;51.840;8.276;2023-03-12T12:57:48;25.90;;;22.77;;
9948;SDS011;5013;51.840;8.276;2023-03-12T13:03:13;12.73;;;11.43;;
9948;SDS011;5013;51.840;8.276;2023-03-12T13:05:44;14.90;;;12.67;;
9948;SDS011;5013;51.840;8.276;2023-03-12T13:13:38;21.63;;;14.83;;
9948;SDS011;5013;51.840;8.276;2023-03-12T13:18:57;19.50;;;14.67;;
9948;SDS011;5013;51.840;8.276;2023-03-12T13:27:04;19.93;;;14.53;;
9948;SDS011;5013;51.840;8.276;2023-03-12T13:29:40;17.37;;;13.47;;
9948;SDS011;5013;51.840;8.276;2023-03-12T13:40:34;28.23;;;18.60;;
9948;SDS011;5013;51.840;8.276;2023-03-12T13:45:27;23.53;;;17.63;;
9948;SDS011;5013;51.840;8.276;2023-03-12T13:47:57;23.40;;;17.33;;
9948;SDS011;5013;51.840;8.276;2023-03-12T13:50:25;24.63;;;17.83;;
9948;SDS011;5013;51.840;8.276;2023-03-12T13:53:02;24.07;;;17.07;;
9948;SDS011;5013;51.840;8.276;2023-03-12T13:55:31;20.20;;;16.17;;
9948;SDS011;5013;51.840;8.276;2023-03-12T14:00:42;25.33;;;17.73;;
9948;SDS011;5013;51.840;8.276;2023-03-12T14:05:55;17.23;;;15.07;;
9948;SDS011;5013;51.840;8.276;2023-03-12T14:11:36;22.00;;;17.63;;
9948;SDS011;5013;51.840;8.276;2023-03-12T14:14:21;21.03;;;18.63;;
9948;SDS011;5013;51.840;8.276;2023-03-12T14:17:15;21.17;;;16.83;;
9948;SDS011;5013;51.840;8.276;2023-03-12T14:19:50;24.20;;;19.13;;
9948;SDS011;5013;51.840;8.276;2023-03-12T14:22:20;22.13;;;18.13;;
9948;SDS011;5013;51.840;8.276;2023-03-12T14:24:49;25.10;;;17.70;;
9948;SDS011;5013;51.840;8.276;2023-03-12T14:27:26;29.43;;;21.20;;
9948;SDS011;5013;51.840;8.276;2023-03-12T14:29:58;25.50;;;18.13;;
9948;SDS011;5013;51.840;8.276;2023-03-12T14:32:34;22.43;;;17.03;;
9948;SDS011;5013;51.840;8.276;2023-03-12T14:37:43;23.60;;;20.33;;
9948;SDS011;5013;51.840;8.276;2023-03-12T14:40:23;20.37;;;16.83;;
9948;SDS011;5013;51.840;8.276;2023-03-12T14:42:49;19.90;;;16.90;;
9948;SDS011;5013;51.840;8.276;2023-03-12T14:45:19;19.00;;;16.50;;
9948;SDS011;5013;51.840;8.276;2023-03-12T14:47:56;16.20;;;14.50;;
9948;SDS011;5013;51.840;8.276;2023-03-12T14:50:24;19.33;;;13.47;;
9948;SDS011;5013;51.840;8.276;2023-03-12T14:52:50;15.77;;;13.37;;
9948;SDS011;5013;51.840;8.276;2023-03-12T14:55:18;19.33;;;14.97;;
9948;SDS011;5013;51.840;8.276;2023-03-12T14:57:46;22.00;;;16.63;;
9948;SDS011;5013;51.840;8.276;2023-03-12T15:02:51;19.97;;;15.57;;
9948;SDS011;5013;51.840;8.276;2023-03-12T15:05:19;18.33;;;15.07;;
9948;SDS011;5013;51.840;8.276;2023-03-12T15:07:45;19.87;;;16.33;;
9948;SDS011;5013;51.840;8.276;2023-03-12T15:10:17;20.63;;;16.20;;
9948;SDS011;5013;51.840;8.276;2023-03-12T15:12:44;27.13;;;18.93;;
9948;SDS011;5013;51.840;8.276;2023-03-12T15:15:22;27.07;;;18.80;;
9948;SDS011;5013;51.840;8.276;2023-03-12T15:17:52;23.77;;;16.47;;
9948;SDS011;5013;51.840;8.276;2023-03-12T15:20:18;21.93;;;14.73;;
9948;SDS011;5013;51.840;8.276;2023-03-12T15:22:47;19.33;;;13.77;;
9948;SDS011;5013;51.840;8.276;2023-03-12T15:27:59;15.50;;;13.20;;
9948;SDS011;5013;51.840;8.276;2023-03-12T15:30:31;19.27;;;13.90;;
9948;SDS011;5013;51.840;8.276;2023-03-12T15:33:06;16.00;;;12.27;;
9948;SDS011;5013;51.840;8.276;2023-03-12T15:35:41;17.37;;;13.40;;
9948;SDS011;5013;51.840;8.276;2023-03-12T15:38:30;15.10;;;12.90;;
9948;SDS011;5013;51.840;8.276;2023-03-12T15:41:05;16.77;;;13.30;;
9948;SDS011;5013;51.840;8.276;2023-03-12T15:43:33;30.00;;;15.80;;
9948;SDS011;5013;51.840;8.276;2023-03-12T15:46:01;22.07;;;14.17;;
9948;SDS011;5013;51.840;8.276;2023-03-12T15:48:30;14.83;;;12.63;;
9948;SDS011;5013;51.840;8.276;2023-03-12T15:50:56;17.77;;;13.20;;
9948;SDS011;5013;51.840;8.276;2023-03-12T15:53:24;20.80;;;13.63;;
9948;SDS011;5013;51.840;8.276;2023-03-12T15:56:03;19.30;;;13.33;;
9948;SDS011;5013;51.840;8.276;2023-03-12T15:58:38;18.40;;;13.17;;
9948;SDS011;5013;51.840;8.276;2023-03-12T16:03:39;24.73;;;15.10;;
9948;SDS011;5013;51.840;8.276;2023-03-12T16:06:16;19.27;;;13.63;;
9948;SDS011;5013;51.840;8.276;2023-03-12T16:08:45;19.57;;;12.53;;
9948;SDS011;5013;51.840;8.276;2023-03-12T16:11:18;20.07;;;13.60;;
9948;SDS011;5013;51.840;8.276;2023-03-12T16:13:47;21.33;;;13.43;;
9948;SDS011;5013;51.840;8.276;2023-03-12T16:16:14;15.83;;;11.83;;
9948;SDS011;5013;51.840;8.276;2023-03-12T16:18:41;20.67;;;14.73;;
9948;SDS011;5013;51.840;8.276;2023-03-12T16:21:07;26.40;;;16.73;;
9948;SDS011;5013;51.840;8.276;2023-03-12T16:23:34;31.60;;;16.40;;
9948;SDS011;5013;51.840;8.276;2023-03-12T16:26:00;28.70;;;15.60;;
9948;SDS011;5013;51.840;8.276;2023-03-12T16:28:27;23.37;;;13.63;;
9948;SDS011;5013;51.840;8.276;2023-03-12T16:30:53;29.67;;;16.67;;
9948;SDS011;5013;51.840;8.276;2023-03-12T16:33:19;29.77;;;15.03;;
9948;SDS011;5013;51.840;8.276;2023-03-12T16:35:47;28.07;;;15.43;;
9948;SDS011;5013;51.840;8.276;2023-03-12T16:38:13;27.87;;;14.47;;
9948;SDS011;5013;51.840;8.276;2023-03-12T16:40:46;30.00;;;14.27;;
9948;SDS011;5013;51.840;8.276;2023-03-12T16:43:14;30.37;;;15.20;;
9948;SDS011;5013;51.840;8.276;2023-03-12T16:45:48;42.33;;;15.53;;
9948;SDS011;5013;51.840;8.276;2023-03-12T16:48:15;30.60;;;13.70;;
9948;SDS011;5013;51.840;8.276;2023-03-12T16:50:50;34.97;;;13.40;;
9948;SDS011;5013;51.840;8.276;2023-03-12T16:53:17;33.13;;;14.33;;
9948;SDS011;5013;51.840;8.276;2023-03-12T16:58:15;39.90;;;16.27;;
9948;SDS011;5013;51.840;8.276;2023-03-12T17:00:42;54.40;;;21.73;;
9948;SDS011;5013;51.840;8.276;2023-03-12T17:03:12;41.63;;;20.17;;
9948;SDS011;5013;51.840;8.276;2023-03-12T17:05:45;41.13;;;20.43;;